Angela, Montana
Current Conditions -  °F | °C
As of 6:53 PM on Sunday 25 Jan 2015 (Local Time) from KMLS Reporting Station
Clear Clear  
Wind Chill: 38°   Ceiling: Unl
Heat Index: 42°   Visibility: 10mi
Dew Point: 34°   Wind: 6mph
Humidity: 73%   Direction: 310°NW
Pressure: 29.94"   Gusts: NA
Location:  46.73°N, 106.2°W
Report Text: KMLS 260153Z AUTO 31005KT 10SM CLR 06/01 A2994 RMK AO2 SLP158 T00560011
Loading
Personal Weather Stations






























Interactive Weather Map New forecast layout! Learn more

10-Day Weather Forecast

Advertisements
Track Severe Weather on mobile